Ernest N — A8PQ6 — position and weather

sailwx.info

Track history (hours):
 
Tides and Currents Weather Stations Pressure Air Temp Water Temp Dewpoint Dewpoint Depression Visibility Wind Speed Wind Dir Waves Ship Positions

Ernest N

Last reported at 2018-Feb-18 18:38 UTC. Time now 2018-Feb-22 19:16 UTC.
Position N 09°11' W 079°53'.

Length 205 m; draft 11.1 m.

Type: Tanker. MMSI: 636013815.

Date/timePositionNaut miles runAvg speedWind from/ knotsBaromVisibWave heightAir tempDewpointWater temp
2018-Feb-18 18:38N 09°11' W 079°53'3 8.2
2018-Feb-18 18:19N 09°13' W 079°55'0 1.3
2018-Feb-18 18:00N 09°13' W 079°56'0 0.1
2018-Feb-18 17:30N 09°13' W 079°56'0 0.0
2018-Feb-18 17:00N 09°13' W 079°56'0 0.0
2018-Feb-18 16:30N 09°13' W 079°56'0 0.0
2018-Feb-18 16:00N 09°13' W 079°56'0 0.0
2018-Feb-18 15:30N 09°13' W 079°56'0 0.0
2018-Feb-18 14:57N 09°13' W 079°56'0 0.0
2018-Feb-18 14:27N 09°13' W 079°56'0 0.0
2018-Feb-18 13:57N 09°13' W 079°56'0 0.0
2018-Feb-18 13:30N 09°13' W 079°56'0 0.2
2018-Feb-18 12:57N 09°13' W 079°56'1 1.5
2018-Feb-18 12:28N 09°13' W 079°56'2 4.5
2018-Feb-18 11:59N 09°16' W 079°55'1 1.3
2018-Feb-18 11:28N 09°16' W 079°55'0 0.5
2018-Feb-18 11:00N 09°17' W 079°55'0 0.6
2018-Feb-18 10:30N 09°17' W 079°55'1 1.7
2018-Feb-18 09:59N 09°18' W 079°55'3 5.8
2018-Feb-18 09:30N 09°20' W 079°55'3 5.5
2018-Feb-18 09:00N 09°23' W 079°55'2 4.4
2018-Feb-18 08:30N 09°25' W 079°56'1 1.7
2018-Feb-18 07:58N 09°25' W 079°57'0 0.1
2018-Feb-18 07:28N 09°25' W 079°57'0 0.0
2018-Feb-18 06:58N 09°25' W 079°57'0 0.0
2018-Feb-18 06:28N 09°25' W 079°57'0 0.0
2018-Feb-18 05:58N 09°25' W 079°57'0 0.0
2018-Feb-18 05:28N 09°25' W 079°57'0 0.0
2018-Feb-18 04:58N 09°25' W 079°57'0 0.0
2018-Feb-18 04:28N 09°25' W 079°57'0 0.0
2018-Feb-18 03:58N 09°25' W 079°57'0 0.0
2018-Feb-18 03:28N 09°25' W 079°57'0 0.0
2018-Feb-18 02:58N 09°25' W 079°57'0 0.0
2018-Feb-18 02:28N 09°25' W 079°57'0 0.0
2018-Feb-18 01:58N 09°25' W 079°57'0 0.0
2018-Feb-18 01:28N 09°25' W 079°57'0 0.0
2018-Feb-18 00:58N 09°25' W 079°57'0 0.0
2018-Feb-18 00:28N 09°25' W 079°57'0 0.0
2018-Feb-17 23:58N 09°25' W 079°57'0 0.0
2018-Feb-17 23:28N 09°25' W 079°57'0 0.1
2018-Feb-17 22:58N 09°25' W 079°57'0 0.1
2018-Feb-17 22:22N 09°25' W 079°57'0 0.0
2018-Feb-17 21:58N 09°25' W 079°57'0 0.0
2018-Feb-17 21:28N 09°25' W 079°57'0 0.0
2018-Feb-17 20:58N 09°25' W 079°57'0 0.0
2018-Feb-17 20:28N 09°25' W 079°57'0 0.0
2018-Feb-17 19:58N 09°25' W 079°57'0 0.0
2018-Feb-17 19:25N 09°25' W 079°57'0 0.0
2018-Feb-17 18:58N 09°25' W 079°57'0 0.0
2018-Feb-17 18:28N 09°25' W 079°57'0 0.0
2018-Feb-17 17:58N 09°25' W 079°57'0 0.0
2018-Feb-17 17:28N 09°25' W 079°57'0 0.0
2018-Feb-17 16:58N 09°25' W 079°57'0 0.0
2018-Feb-17 16:28N 09°25' W 079°57'0 0.0
2018-Feb-17 15:58N 09°25' W 079°57'0 0.4
2018-Feb-17 15:30N 09°25' W 079°57'4 8.4
2018-Feb-17 14:59N 09°28' W 079°60'  
2018-Feb-12 19:34N 29°18' W 094°37'112.6
2018-Feb-12 19:27N 29°19' W 094°38'1011.0
2018-Feb-12 18:35N 29°22' W 094°48'211.4
2018-Feb-12 18:27N 29°24' W 094°49'511.0
2018-Feb-12 18:00N 29°28' W 094°51'510.9
2018-Feb-12 17:30N 29°33' W 094°54'510.3
2018-Feb-12 17:01N 29°37' W 094°57'5 9.9
2018-Feb-12 16:31N 29°42' W 094°60'4 7.7
2018-Feb-12 15:59N 29°44' W 095°03'3 5.2
2018-Feb-12 15:30N 29°45' W 095°06'  
2018-Feb-09 15:01N 29°39' W 094°58'1212.1
2018-Feb-09 14:01N 29°29' W 094°52'  
Track history (hours):
 
Tides and Currents Weather Stations Pressure Air Temp Water Temp Dewpoint Dewpoint Depression Visibility Wind Speed Wind Dir Waves Ship Positions

Ernest N

Last reported at 2018-Feb-18 18:38 UTC. Time now 2018-Feb-22 19:16 UTC.
Position N 09°11' W 079°53'.

Length 205 m; draft 11.1 m.

Type: Tanker. MMSI: 636013815.

Date/timePositionNaut miles runAvg speedWind from/ knotsBaromVisibWave heightAir tempDewpointWater temp
2018-Feb-18 18:38N 09°11' W 079°53'3 8.2
2018-Feb-18 18:19N 09°13' W 079°55'0 1.3
2018-Feb-18 18:00N 09°13' W 079°56'0 0.1
2018-Feb-18 17:30N 09°13' W 079°56'0 0.0
2018-Feb-18 17:00N 09°13' W 079°56'0 0.0
2018-Feb-18 16:30N 09°13' W 079°56'0 0.0
2018-Feb-18 16:00N 09°13' W 079°56'0 0.0
2018-Feb-18 15:30N 09°13' W 079°56'0 0.0
2018-Feb-18 14:57N 09°13' W 079°56'0 0.0
2018-Feb-18 14:27N 09°13' W 079°56'0 0.0
2018-Feb-18 13:57N 09°13' W 079°56'0 0.0
2018-Feb-18 13:30N 09°13' W 079°56'0 0.2
2018-Feb-18 12:57N 09°13' W 079°56'1 1.5
2018-Feb-18 12:28N 09°13' W 079°56'2 4.5
2018-Feb-18 11:59N 09°16' W 079°55'1 1.3
2018-Feb-18 11:28N 09°16' W 079°55'0 0.5
2018-Feb-18 11:00N 09°17' W 079°55'0 0.6
2018-Feb-18 10:30N 09°17' W 079°55'1 1.7
2018-Feb-18 09:59N 09°18' W 079°55'3 5.8
2018-Feb-18 09:30N 09°20' W 079°55'3 5.5
2018-Feb-18 09:00N 09°23' W 079°55'2 4.4
2018-Feb-18 08:30N 09°25' W 079°56'1 1.7
2018-Feb-18 07:58N 09°25' W 079°57'0 0.1
2018-Feb-18 07:28N 09°25' W 079°57'0 0.0
2018-Feb-18 06:58N 09°25' W 079°57'0 0.0
2018-Feb-18 06:28N 09°25' W 079°57'0 0.0
2018-Feb-18 05:58N 09°25' W 079°57'0 0.0
2018-Feb-18 05:28N 09°25' W 079°57'0 0.0
2018-Feb-18 04:58N 09°25' W 079°57'0 0.0
2018-Feb-18 04:28N 09°25' W 079°57'0 0.0
2018-Feb-18 03:58N 09°25' W 079°57'0 0.0
2018-Feb-18 03:28N 09°25' W 079°57'0 0.0
2018-Feb-18 02:58N 09°25' W 079°57'0 0.0
2018-Feb-18 02:28N 09°25' W 079°57'0 0.0
2018-Feb-18 01:58N 09°25' W 079°57'0 0.0
2018-Feb-18 01:28N 09°25' W 079°57'0 0.0
2018-Feb-18 00:58N 09°25' W 079°57'0 0.0
2018-Feb-18 00:28N 09°25' W 079°57'0 0.0
2018-Feb-17 23:58N 09°25' W 079°57'0 0.0
2018-Feb-17 23:28N 09°25' W 079°57'0 0.1
2018-Feb-17 22:58N 09°25' W 079°57'0 0.1
2018-Feb-17 22:22N 09°25' W 079°57'0 0.0
2018-Feb-17 21:58N 09°25' W 079°57'0 0.0
2018-Feb-17 21:28N 09°25' W 079°57'0 0.0
2018-Feb-17 20:58N 09°25' W 079°57'0 0.0
2018-Feb-17 20:28N 09°25' W 079°57'0 0.0
2018-Feb-17 19:58N 09°25' W 079°57'0 0.0
2018-Feb-17 19:25N 09°25' W 079°57'0 0.0
2018-Feb-17 18:58N 09°25' W 079°57'0 0.0
2018-Feb-17 18:28N 09°25' W 079°57'0 0.0
2018-Feb-17 17:58N 09°25' W 079°57'0 0.0
2018-Feb-17 17:28N 09°25' W 079°57'0 0.0
2018-Feb-17 16:58N 09°25' W 079°57'0 0.0
2018-Feb-17 16:28N 09°25' W 079°57'0 0.0
2018-Feb-17 15:58N 09°25' W 079°57'0 0.4
2018-Feb-17 15:30N 09°25' W 079°57'4 8.4
2018-Feb-17 14:59N 09°28' W 079°60'  
2018-Feb-12 19:34N 29°18' W 094°37'112.6
2018-Feb-12 19:27N 29°19' W 094°38'1011.0
2018-Feb-12 18:35N 29°22' W 094°48'211.4
2018-Feb-12 18:27N 29°24' W 094°49'511.0
2018-Feb-12 18:00N 29°28' W 094°51'510.9
2018-Feb-12 17:30N 29°33' W 094°54'510.3
2018-Feb-12 17:01N 29°37' W 094°57'5 9.9
2018-Feb-12 16:31N 29°42' W 094°60'4 7.7
2018-Feb-12 15:59N 29°44' W 095°03'3 5.2
2018-Feb-12 15:30N 29°45' W 095°06'  
2018-Feb-09 15:01N 29°39' W 094°58'1212.1
2018-Feb-09 14:01N 29°29' W 094°52'  

Dump ship's entire track history